Terminal Aerodrome Forecast
Issued by NWS Sterling, VA

Home | Current Version | Previous Version | Text Only | Print | Product List | Glossary On
Versions: 1 2 3 4 5 6 7 8 9 10 11 12 13
000
FTUS41 KLWX 211100
TAFCHO
TAF
KCHO 211138Z 2112/2212 00000KT P6SM BKN060
     FM211700 00000KT P6SM SCT050
     FM220700 00000KT P6SM BKN050
     FM220900 00000KT P6SM -FZRAPL BKN050
     FM221100 00000KT P6SM -FZRAPL BKN030 BKN050=

USA.gov is the U.S. government's official web portal to all federal, state and local government web resources and services.